createdAt,value
2022-09-10T00:01:56.388Z,100545.31
2022-09-10T00:06:57.995Z,100537.59
2022-09-10T00:11:59.484Z,100537.97
2022-09-10T00:17:01.729Z,100538.69
2022-09-10T00:22:03.232Z,100530.75
2022-09-10T00:27:04.919Z,100541.53
2022-09-10T00:32:06.501Z,100542.97
2022-09-10T00:37:08.001Z,100543.72
2022-09-10T00:42:11.309Z,100540.00
2022-09-10T00:47:23.540Z,100539.50
2022-09-10T00:52:25.070Z,100527.66
2022-09-10T00:57:26.547Z,100531.00
2022-09-10T01:02:28.074Z,100531.75
2022-09-10T01:07:29.601Z,100533.53
2022-09-10T01:12:53.493Z,100538.06
2022-09-10T01:18:17.626Z,100541.56
2022-09-10T01:23:27.183Z,100549.09
2022-09-10T01:28:33.730Z,100547.19
2022-09-10T01:33:37.815Z,100551.84
2022-09-10T01:38:39.406Z,100555.59
2022-09-10T01:43:41.943Z,100554.28
2022-09-10T01:48:55.891Z,100557.25
2022-09-10T01:54:01.843Z,100559.47
2022-09-10T01:59:08.776Z,100555.75
2022-09-10T02:04:10.298Z,100552.75
2022-09-10T02:09:12.372Z,100550.94
2022-09-10T02:14:14.530Z,100550.34
2022-09-10T02:19:16.016Z,100556.22
2022-09-10T02:24:17.560Z,100556.72
2022-09-10T02:29:19.403Z,100556.44
2022-09-10T02:34:21.688Z,100556.59
2022-09-10T02:39:23.464Z,100559.69
2022-09-10T02:44:27.105Z,100559.69
2022-09-10T02:49:29.141Z,100564.47
2022-09-10T02:54:30.642Z,100565.41
2022-09-10T02:59:32.942Z,100560.16
2022-09-10T03:04:34.451Z,100561.00
2022-09-10T03:09:35.978Z,100555.34
2022-09-10T03:14:37.494Z,100561.56
2022-09-10T03:19:40.015Z,100561.44
2022-09-10T03:24:41.932Z,100568.97
2022-09-10T03:29:45.212Z,100560.09
2022-09-10T03:34:46.695Z,100558.94
2022-09-10T03:39:48.218Z,100571.03
2022-09-10T03:44:49.708Z,100571.97
2022-09-10T03:49:51.184Z,100571.25
2022-09-10T03:54:52.656Z,100574.59
2022-09-10T03:59:54.203Z,100583.25
2022-09-10T04:04:55.727Z,100583.13
2022-09-10T04:09:58.436Z,100582.97
2022-09-10T04:15:01.854Z,100585.06
2022-09-10T04:20:03.550Z,100582.16
2022-09-10T04:25:05.406Z,100592.56
2022-09-10T04:30:07.583Z,100591.50
2022-09-10T04:35:09.152Z,100591.63
2022-09-10T04:40:10.678Z,100581.69
2022-09-10T04:45:12.104Z,100599.16
2022-09-10T04:50:15.522Z,100590.53
2022-09-10T04:55:17.086Z,100594.63
2022-09-10T05:00:18.658Z,100583.03
2022-09-10T05:05:20.132Z,100588.16
2022-09-10T05:10:23.481Z,100588.97
2022-09-10T05:15:24.968Z,100587.78
2022-09-10T05:20:27.633Z,100593.16
2022-09-10T05:25:29.590Z,100595.69
2022-09-10T05:30:32.804Z,100597.47
2022-09-10T05:35:34.748Z,100603.94
2022-09-10T05:40:36.263Z,100598.94
2022-09-10T05:45:37.985Z,100598.44
2022-09-10T05:50:39.485Z,100606.34
2022-09-10T05:55:40.987Z,100604.81
2022-09-10T06:00:45.341Z,100611.50
2022-09-10T06:05:53.152Z,100625.28
2022-09-10T06:10:57.094Z,100632.69
2022-09-10T06:15:58.692Z,100647.78
2022-09-10T06:21:15.261Z,100648.16
2022-09-10T06:26:17.273Z,100649.56
2022-09-10T06:31:19.689Z,100647.91
2022-09-10T06:36:21.167Z,100657.97
2022-09-10T06:41:22.691Z,100665.94
2022-09-10T06:47:02.342Z,100659.00
2022-09-10T06:51:45.627Z,100672.81
2022-09-10T06:56:48.786Z,100672.47
2022-09-10T07:01:50.306Z,100675.09
2022-09-10T07:06:51.858Z,100690.09
2022-09-10T07:11:53.347Z,100689.44
2022-09-10T07:16:55.542Z,100688.50
2022-09-10T07:21:57.160Z,100704.81
2022-09-10T07:26:58.728Z,100707.91
2022-09-10T07:32:00.450Z,100711.84
2022-09-10T07:37:01.928Z,100712.31
2022-09-10T07:42:03.448Z,100716.63
2022-09-10T07:47:04.978Z,100722.50
2022-09-10T07:52:07.201Z,100723.34
2022-09-10T07:57:08.688Z,100719.63
2022-09-10T08:02:12.835Z,100725.75
2022-09-10T08:07:17.194Z,100732.81
2022-09-10T08:12:18.679Z,100734.94
2022-09-10T08:17:20.154Z,100744.19
2022-09-10T08:22:21.626Z,100756.88
2022-09-10T08:27:23.168Z,100759.75
2022-09-10T08:32:24.683Z,100764.16
2022-09-10T08:37:26.174Z,100771.34
2022-09-10T08:42:32.105Z,100768.06
2022-09-10T08:47:42.206Z,100777.28
2022-09-10T08:52:50.937Z,100786.16
2022-09-10T08:58:07.344Z,100778.56
2022-09-10T09:03:28.015Z,100800.69
2022-09-10T09:08:33.865Z,100807.59
2022-09-10T09:13:45.224Z,100813.16
2022-09-10T09:19:21.058Z,100808.72
2022-09-10T09:24:41.244Z,100816.09
2022-09-10T09:30:01.784Z,100812.47
2022-09-10T09:35:25.687Z,100808.94
2022-09-10T09:40:50.024Z,100814.09
2022-09-10T09:45:53.310Z,100824.16
2022-09-10T09:50:55.813Z,100810.56
2022-09-10T09:55:58.940Z,100818.50
2022-09-10T10:01:03.353Z,100824.84
2022-09-10T10:06:06.159Z,100815.22
2022-09-10T10:11:08.003Z,100823.91
2022-09-10T10:16:21.189Z,100812.00
2022-09-10T10:21:33.028Z,100818.94
2022-09-10T10:26:34.833Z,100814.03
2022-09-10T10:31:45.945Z,100821.47
2022-09-10T10:37:07.708Z,100822.06
2022-09-10T10:42:13.582Z,100827.94
2022-09-10T10:47:27.914Z,100825.38
2022-09-10T10:52:42.091Z,100833.72
2022-09-10T10:58:05.924Z,100827.88
2022-09-10T11:03:14.435Z,100830.25
2022-09-10T11:08:19.978Z,100827.03
2022-09-10T11:13:33.670Z,100828.84
2022-09-10T11:18:44.909Z,100829.75
2022-09-10T11:23:58.171Z,100824.53
2022-09-10T11:29:17.184Z,100821.34
2022-09-10T11:34:32.847Z,100828.00
2022-09-10T11:39:35.572Z,100826.47
2022-09-10T11:44:58.295Z,100823.94
2022-09-10T11:50:15.527Z,100828.53
2022-09-10T11:55:17.504Z,100838.84
2022-09-10T12:00:19.246Z,100831.38
2022-09-10T12:05:39.219Z,100828.84
2022-09-10T12:10:49.670Z,100831.75
2022-09-10T12:15:56.268Z,100841.00
2022-09-10T12:20:59.617Z,100849.63
2022-09-10T12:26:21.367Z,100844.59
2022-09-10T12:31:22.938Z,100858.25
2022-09-10T12:36:27.191Z,100857.41
2022-09-10T12:41:28.501Z,100853.38
2022-09-10T12:46:31.297Z,100855.22
2022-09-10T12:51:51.682Z,100867.47
2022-09-10T12:57:20.339Z,100864.53
2022-09-10T13:02:28.072Z,100859.81
2022-09-10T13:07:36.844Z,100870.25
2022-09-10T13:12:40.931Z,100862.75
2022-09-10T13:17:47.999Z,100862.88
2022-09-10T13:23:12.404Z,100866.34
2022-09-10T13:28:28.714Z,100869.31
2022-09-10T13:33:30.911Z,100873.09
2022-09-10T13:39:02.934Z,100870.41
2022-09-10T13:44:34.389Z,100878.19
2022-09-10T13:49:41.926Z,100877.25
2022-09-10T13:54:47.300Z,100873.88
2022-09-10T13:59:50.210Z,100879.47
2022-09-10T14:04:51.723Z,100869.16
2022-09-10T14:09:56.648Z,100867.31
2022-09-10T14:15:00.172Z,100863.56
2022-09-10T14:20:16.232Z,100873.63
2022-09-10T14:25:31.118Z,100862.88
2022-09-10T14:30:33.004Z,100859.66
2022-09-10T14:35:44.868Z,100869.53
2022-09-10T14:40:47.544Z,100872.78
2022-09-10T14:45:49.830Z,100869.16
2022-09-10T14:50:51.452Z,100881.66
2022-09-10T14:55:52.918Z,100885.84
2022-09-10T15:00:54.607Z,100882.09
2022-09-10T15:05:56.097Z,100893.47
2022-09-10T15:10:57.586Z,100885.50
2022-09-10T15:15:59.101Z,100886.94
2022-09-10T15:21:01.557Z,100886.75
2022-09-10T15:26:03.916Z,100900.03
2022-09-10T15:31:05.720Z,100905.06
2022-09-10T15:36:07.589Z,100920.94
2022-09-10T15:41:13.208Z,100922.94
2022-09-10T15:46:16.183Z,100922.78
2022-09-10T15:51:21.702Z,100924.84
2022-09-10T15:56:26.639Z,100931.31
2022-09-10T16:01:28.912Z,100923.41
2022-09-10T16:06:38.139Z,100922.81
2022-09-10T16:11:40.465Z,100923.41
2022-09-10T16:16:41.969Z,100930.81
2022-09-10T16:21:45.743Z,100930.88
2022-09-10T16:26:49.038Z,100940.94
2022-09-10T16:31:50.582Z,100946.78
2022-09-10T16:36:52.379Z,100940.19
2022-09-10T16:41:54.090Z,100951.53
2022-09-10T16:46:57.679Z,100956.94
2022-09-10T16:51:59.173Z,100973.81
2022-09-10T16:57:02.082Z,100968.16
2022-09-10T17:02:04.626Z,100967.03
2022-09-10T17:07:06.894Z,100964.75
2022-09-10T17:12:10.461Z,100966.91
2022-09-10T17:17:13.869Z,100973.59
2022-09-10T17:22:15.398Z,100970.88
2022-09-10T17:27:17.000Z,100976.41
2022-09-10T17:32:18.489Z,100985.31
2022-09-10T17:37:20.117Z,100975.59
2022-09-10T17:42:21.654Z,100988.28
2022-09-10T17:47:23.443Z,100985.19
2022-09-10T17:52:25.356Z,100986.25
2022-09-10T17:57:26.839Z,100997.28
2022-09-10T18:02:29.127Z,100995.25
2022-09-10T18:07:31.161Z,101005.59
2022-09-10T18:12:32.536Z,101017.03
2022-09-10T18:17:34.016Z,101026.50
2022-09-10T18:22:35.486Z,101023.97
2022-09-10T18:27:37.737Z,101029.00
2022-09-10T18:32:39.295Z,101037.44
2022-09-10T18:37:40.820Z,101042.94
2022-09-10T18:42:46.530Z,101046.19
2022-09-10T18:47:48.336Z,101067.44
2022-09-10T18:52:49.842Z,101068.59
2022-09-10T18:57:51.581Z,101061.06
2022-09-10T19:02:53.989Z,101068.25
2022-09-10T19:07:55.598Z,101068.31
2022-09-10T19:12:57.088Z,101070.97
2022-09-10T19:17:59.053Z,101079.06
2022-09-10T19:23:02.483Z,101071.28
2022-09-10T19:28:03.947Z,101081.81
2022-09-10T19:33:05.655Z,101085.84
2022-09-10T19:38:27.222Z,101096.75
2022-09-10T19:43:29.035Z,101099.97
2022-09-10T19:48:30.616Z,101095.84
2022-09-10T19:53:33.738Z,101105.72
2022-09-10T19:58:35.704Z,101107.09
2022-09-10T20:03:37.882Z,101109.97
2022-09-10T20:08:39.507Z,101125.53
2022-09-10T20:13:41.253Z,101116.28
2022-09-10T20:18:42.782Z,101112.66
2022-09-10T20:23:45.550Z,101129.97
2022-09-10T20:28:50.690Z,101140.53
2022-09-10T20:33:59.644Z,101141.56
2022-09-10T20:39:01.188Z,101134.09
2022-09-10T20:44:02.668Z,101133.75
2022-09-10T20:49:04.258Z,101151.91
2022-09-10T20:54:06.914Z,101147.38
2022-09-10T20:59:08.446Z,101148.09
2022-09-10T21:04:10.215Z,101143.47
2022-09-10T21:09:11.855Z,101155.25
2022-09-10T21:14:13.432Z,101140.81
2022-09-10T21:19:16.006Z,101148.91
2022-09-10T21:24:18.928Z,101150.19
2022-09-10T21:29:20.758Z,101149.41
2022-09-10T21:34:22.242Z,101162.59
2022-09-10T21:39:23.711Z,101162.47
2022-09-10T21:44:25.276Z,101155.75
2022-09-10T21:49:26.803Z,101166.59
2022-09-10T21:54:28.507Z,101161.53
2022-09-10T21:59:29.985Z,101168.69
2022-09-10T22:04:31.459Z,101184.09
2022-09-10T22:09:33.803Z,101186.31
2022-09-10T22:14:35.310Z,101185.78
2022-09-10T22:19:37.040Z,101197.28
2022-09-10T22:24:38.515Z,101197.09
2022-09-10T22:29:40.002Z,101195.72
2022-09-10T22:34:43.235Z,101204.59
2022-09-10T22:39:44.765Z,101207.63
2022-09-10T22:44:46.308Z,101205.28
2022-09-10T22:49:47.816Z,101207.19
2022-09-10T22:54:49.300Z,101209.31
2022-09-10T22:59:50.781Z,101215.53
2022-09-10T23:04:52.386Z,101227.63
2022-09-10T23:09:53.864Z,101229.16
2022-09-10T23:14:55.336Z,101230.09
2022-09-10T23:19:56.812Z,101232.28
2022-09-10T23:24:58.314Z,101240.19
2022-09-10T23:29:59.796Z,101244.72
2022-09-10T23:35:01.274Z,101249.56
2022-09-10T23:40:03.275Z,101247.63
2022-09-10T23:45:05.533Z,101246.19
2022-09-10T23:50:07.845Z,101250.25
2022-09-10T23:55:09.403Z,101246.19
